Archival Weather

Tokyo Intl

Tokyo, Japan (RJTT)

Report from: Tuesday, November 21, 2023 10:30 PM JST
Current time: Sunday, February 25, 2024 12:07 AM JST

Current weather – Weather history – Daily summaries
Weather forecast

Temperature14.0°C (57.2°F)
Dew point7.0°C (44.6°F)
Winds 5 kts (2.6 m/s, 5.8 mph) North (360°)
Clouds Sky clear
Altimeter30.15 in.Hg (1021 mB)
Relative humidity63 %
Density altitude-235 ft. (-72 m)
Remarks Ceiling and visibility OK
No significant changes expected in the next two hours
Flight conditions Visual Meteorological Conditions
Raw dataRJTT 211330Z 36005KT CAVOK 14/07 Q1021 NOSIG
An error has occurred. This application may no longer respond until reloaded. Reload 🗙